Decoded Metar for KDEQ (DE QUEEN in AR, USA) (IATA:DEQ) | Meteo·Mobile Aviation Weather
aviador You're here:

KDEQ Decoded Metar

DE QUEEN in AR, USA
Report Time2018-12-16 09:53:00
UTC Time2018-12-16 10:18:39
Flight Rules vfr VFR
WindCalm
Visibility9999 m
Phenomena:N/A
Clouds:N/A
Expected CloudBase > 400 ft AGL from Temp-Dew spread
CeilingNone
Temp03°C (ISA -11)
Dew Point02°C (93% RH)
AAT1.3°C
QNH1023 hPa
Density Alt-1,266 ft
Elevation348 ft
Report Wrong Elevation
Raw Report
KDEQ 160953Z AUTO 00000KT 10SM CLR 03/02 A3022 RMK AO2 SLP231
T00280022 $=

Extra information for KDEQ:More info

Metar Taf Metar & Taf Last 4 Metars F.Rules Stats Wind Profile Meteogram Temp Stats Airport Information Weather charts Add Link Nearby VenuesMetar ALERT Operation Metar Decoded Social comments

AIRNAV info for KDEQ